Latest Coastal Weather Observations for Mardie

IDW60701

Issued at 5:35 pm WST Thursday 24 April 2014 (issued every 10 minutes, with the page automatically refreshed every 10 minutes)

About coastal observations | Map of coastal stations | Coastal observations for WA | Marine services | Other Formats
Station Details ID: 005008 Name: MARDIE Lat: -21.19 Lon: 115.98 Height: 11.0 m
Data from the previous 72 hours. | See also: Recent months at Mardie
Date/Time
WST
Temp

°C
Wind Pressure Rain
since 9am
mm
Weather Cloud Vis
km
Sea
Height
m
Swell
Dir
 
Speed
knots
Gust
knots
hPa Trend Height
m
Period
s
Dir
24/05:30pm 30.1 WNW 7 9 1008.7 - 0.0 - - - - - - -
24/05:00pm 30.8 WNW 8 11 1008.3 - 0.0 - - - - - - -
24/04:30pm 31.6 WNW 9 12 1008.1 - 0.0 - - - - - - -
24/04:00pm 32.1 WNW 9 13 1007.9 - 0.0 - - - - - - -
24/03:30pm 32.5 WNW 10 13 1007.8 - 0.0 - - - - - - -
24/03:00pm 32.7 WNW 9 12 1007.7 - 0.0 - - - - - - -
24/02:30pm 33.6 WNW 10 13 1007.8 - 0.0 - - - - - - -
24/02:00pm 33.5 WNW 9 13 1008.1 - 0.0 - - - - - - -
24/01:30pm 33.7 WNW 10 15 1008.3 - 0.0 - - - - - - -
24/01:00pm 34.0 WNW 10 15 1008.7 - 0.0 - - - - - - -
24/12:30pm 35.4 WNW 6 10 1009.1 - 0.0 - - - - - - -
24/12:00pm 34.2 W 6 11 1009.6 - 0.0 - - - - - - -
24/11:30am 33.8 W 4 9 1010.1 - 0.0 - - - - - - -
24/11:00am 32.6 WSW 2 7 1010.6 - 0.0 - - - - - - -
24/10:30am 32.4 WSW 1 4 1010.9 - 0.0 - - - - - - -
24/10:00am 30.8 SSW 3 6 1011.3 - 0.0 - - - - - - -
24/09:30am 29.8 SW 3 5 1011.5 - 0.0 - - - - - - -
24/09:00am 28.5 W 3 5 1011.4 - 0.0 - - - - - - -
24/08:30am 27.1 W 3 5 1011.3 - 0.0 - - - - - - -
24/08:00am 25.3 W 1 3 1010.9 - 0.0 - - - - - - -
24/07:30am 24.1 CALM 0 0 1010.8 - 0.0 - - - - - - -
24/07:00am 21.2 CALM 0 0 1010.5 - 0.0 - - - - - - -
24/06:30am 21.3 W 2 3 1010.0 - 0.0 - - - - - - -
24/06:00am 21.4 W 2 3 1009.9 - 0.0 - - - - - - -
24/05:30am 21.5 W 1 2 1009.9 - 0.0 - - - - - - -
24/05:00am 21.5 W 3 4 1009.6 - 0.0 - - - - - - -
24/04:30am 21.6 W 3 4 1009.6 - 0.0 - - - - - - -
24/04:00am 21.6 W 2 2 1009.6 - 0.0 - - - - - - -
24/03:30am 21.9 W 2 2 1009.7 - 0.0 - - - - - - -
24/03:00am 22.1 W 2 2 1009.6 - 0.0 - - - - - - -
24/02:30am 22.6 W 2 2 1009.7 - 0.0 - - - - - - -
24/02:00am 22.8 W 1 2 1009.8 - 0.0 - - - - - - -
24/01:30am 22.7 W 2 2 1010.1 - 0.0 - - - - - - -
24/01:00am 22.6 W 3 3 1010.3 - 0.0 - - - - - - -
24/12:30am 22.5 W 2 3 1010.5 - 0.0 - - - - - - -
24/12:00am 23.0 W 1 2 1010.7 - 0.0 - - - - - - -
 
Date/Time
WST
Temp

°C
Wind Pressure Rain
since 9am
mm
Weather Cloud Vis
km
Sea
Height
m
Swell
Dir
 
Speed
knots
Gust
knots
hPa Trend Height
m
Period
s
Dir
23/11:30pm 23.4 W 1 3 1010.9 - 0.0 - - - - - - -
23/11:00pm 23.6 CALM 0 0 1011.1 - 0.0 - - - - - - -
23/10:30pm 24.0 W 2 2 1011.1 - 0.0 - - - - - - -
23/10:00pm 24.5 W 2 3 1011.3 - 0.0 - - - - - - -
23/09:30pm 24.9 CALM 0 0 1011.6 - 0.0 - - - - - - -
23/09:00pm 25.5 CALM 0 0 1011.6 - 0.0 - - - - - - -
23/08:30pm 25.8 W 1 2 1011.5 - 0.0 - - - - - - -
23/08:00pm 26.3 W 3 4 1011.5 - 0.0 - - - - - - -
23/07:30pm 27.1 W 4 5 1011.2 - 0.0 - - - - - - -
23/07:00pm 27.3 W 6 8 1010.9 - 0.0 - - - - - - -
23/06:30pm 27.7 W 8 10 1010.6 - 0.0 - - - - - - -
23/06:00pm 28.3 W 8 11 1010.4 - 0.0 - - - - - - -
23/05:30pm 29.2 WNW 9 12 1010.0 - 0.0 - - - - - - -
23/05:00pm 30.1 WNW 10 14 1009.7 - 0.0 - - - - - - -
23/04:30pm 31.0 WNW 12 17 1009.6 - 0.0 - - - - - - -
23/04:00pm 31.9 WNW 12 15 1009.3 - 0.0 - - - - - - -
23/03:30pm 32.6 WNW 11 14 1009.0 - 0.0 - - - - - - -
23/03:00pm 33.3 WNW 12 16 1009.1 - 0.0 - - - - - - -
23/02:30pm 33.3 WNW 11 14 1009.1 - 0.0 - - - - - - -
23/02:00pm 33.9 WNW 11 15 1009.4 - 0.0 - - - - - - -
23/01:30pm 34.0 W 11 15 1009.8 - 0.0 - - - - - - -
23/01:00pm 34.0 W 10 13 1010.1 - 0.0 - - - - - - -
23/12:30pm 34.3 WNW 10 13 1010.4 - 0.0 - - - - - - -
23/12:00pm 34.5 WSW 3 7 1010.8 - 0.0 - - - - - - -
23/11:30am 34.7 S 3 8 1011.1 - 0.0 - - - - - - -
23/11:00am 33.4 S 5 10 1011.6 - 0.0 - - - - - - -
23/10:30am 32.0 S 5 11 1012.1 - 0.0 - - - - - - -
23/10:00am 31.3 S 6 8 1012.4 - 0.0 - - - - - - -
23/09:30am 29.3 SSW 5 7 1012.6 - 0.0 - - - - - - -
23/09:00am 27.5 SSW 5 8 1012.5 - 0.0 - - - - - - -
23/08:30am 25.6 SSW 5 6 1012.6 - 0.0 - - - - - - -
23/08:00am 23.7 SW 4 5 1012.6 - 0.0 - - - - - - -
23/07:30am 21.4 W 1 3 1012.3 - 0.0 - - - - - - -
23/07:00am 19.6 CALM 0 0 1012.1 - 0.0 - - - - - - -
23/06:30am 19.1 W 2 2 1011.7 - 0.0 - - - - - - -
23/06:00am 20.3 W 1 2 1011.6 - 0.0 - - - - - - -
23/05:30am 20.2 W 4 5 1011.4 - 0.0 - - - - - - -
23/05:00am 20.7 W 3 3 1011.3 - 0.0 - - - - - - -
23/04:30am 20.9 W 4 4 1011.2 - 0.0 - - - - - - -
23/04:00am 20.8 W 1 2 1011.4 - 0.0 - - - - - - -
23/03:30am 21.4 CALM 0 0 1011.6 - 0.0 - - - - - - -
23/03:00am 22.0 CALM 0 2 1011.5 - 0.0 - - - - - - -
23/02:30am 21.9 W 2 2 1011.7 - 0.0 - - - - - - -
23/02:00am 22.2 W 2 3 1011.9 - 0.0 - - - - - - -
23/01:30am 22.5 W 3 3 1012.1 - 0.0 - - - - - - -
23/01:00am 22.6 W 3 3 1012.4 - 0.0 - - - - - - -
23/12:30am 23.1 CALM 0 0 1012.6 - 0.0 - - - - - - -
23/12:00am 23.1 CALM 0 0 1012.8 - 0.0 - - - - - - -
 
Date/Time
WST
Temp

°C
Wind Pressure Rain
since 9am
mm
Weather Cloud Vis
km
Sea
Height
m
Swell
Dir
 
Speed
knots
Gust
knots
hPa Trend Height
m
Period
s
Dir
22/11:30pm 23.2 CALM 0 0 1012.8 - 0.0 - - - - - - -
22/11:00pm 23.6 W 3 4 1012.8 - 0.0 - - - - - - -
22/10:30pm 24.3 CALM 0 0 1012.8 - 0.0 - - - - - - -
22/10:00pm 24.9 CALM 0 0 1013.0 - 0.0 - - - - - - -
22/09:30pm 25.4 CALM 0 0 1013.2 - 0.0 - - - - - - -
22/09:00pm 25.4 W 1 2 1013.0 - 0.0 - - - - - - -
22/08:30pm 25.9 CALM 0 2 1013.0 - 0.0 - - - - - - -
22/08:00pm 26.3 W 1 2 1012.6 - 0.0 - - - - - - -
22/07:30pm 26.9 W 3 3 1012.2 - 0.0 - - - - - - -
22/07:00pm 27.6 WNW 3 4 1011.8 - 0.0 - - - - - - -
22/06:30pm 28.2 WNW 5 7 1011.5 - 0.0 - - - - - - -
22/06:00pm 29.2 WNW 6 9 1011.1 - 0.0 - - - - - - -
22/05:30pm 30.3 NW 7 9 1010.8 - 0.0 - - - - - - -
22/05:00pm 31.1 WNW 8 10 1010.6 - 0.0 - - - - - - -
22/04:30pm 33.3 WNW 8 11 1010.4 - 0.0 - - - - - - -
22/04:00pm 33.5 WNW 10 13 1010.4 - 0.0 - - - - - - -
22/03:30pm 34.4 W 12 15 1010.3 - 0.0 - - - - - - -
22/03:00pm 35.3 WNW 10 13 1010.3 - 0.0 - - - - - - -
22/02:30pm 35.7 WNW 10 13 1010.4 - 0.0 - - - - - - -
22/02:00pm 35.3 W 11 13 1010.5 - 0.0 - - - - - - -
22/01:30pm 35.7 W 9 14 1010.7 - 0.0 - - - - - - -
22/01:00pm 35.8 W 7 11 1011.0 - 0.0 - - - - - - -
22/12:30pm 35.0 W 6 11 1011.3 - 0.0 - - - - - - -
22/12:00pm 34.6 WNW 5 10 1011.7 - 0.0 - - - - - - -
22/11:30am 34.5 WNW 5 9 1012.1 - 0.0 - - - - - - -
22/11:00am 33.6 WSW 4 7 1012.4 - 0.0 - - - - - - -
22/10:30am 32.4 SSW 2 5 1012.7 - 0.0 - - - - - - -
22/10:00am 31.0 S 1 3 1012.7 - 0.0 - - - - - - -
22/09:30am 29.3 SSW 2 4 1012.9 - 0.0 - - - - - - -
22/09:00am 27.0 SSW 1 3 1012.8 - 0.0 - - - - - - -
22/08:30am 25.4 S 3 5 1012.7 - 0.0 - - - - - - -
22/08:00am 24.3 SSW 5 7 1012.6 - 0.0 - - - - - - -
22/07:30am 22.0 WSW 2 4 1012.4 - 0.0 - - - - - - -
22/07:00am 20.4 WSW 2 2 1012.1 - 0.0 - - - - - - -
22/06:30am 20.1 WSW 3 3 1011.9 - 0.0 - - - - - - -
22/06:00am 20.6 W 5 5 1011.9 - 0.0 - - - - - - -
22/05:30am 21.0 W 4 5 1011.9 - 0.0 - - - - - - -
22/05:00am 21.8 WSW 5 6 1011.7 - 0.0 - - - - - - -
22/04:30am 22.3 WSW 3 4 1011.6 - 0.0 - - - - - - -
22/04:00am 23.0 WSW 5 6 1011.6 - 0.0 - - - - - - -
22/03:30am 23.2 SW 5 8 1011.7 - 0.0 - - - - - - -
22/03:00am 23.1 WSW 5 5 1011.7 - 0.0 - - - - - - -
22/02:30am 23.0 NNW 5 6 1011.7 - 0.0 - - - - - - -
22/02:00am 23.4 CALM 0 0 1011.9 - 0.0 - - - - - - -
22/01:30am 23.3 CALM 0 0 1012.2 - 0.0 - - - - - - -
22/01:00am 23.9 CALM 0 0 1012.5 - 0.0 - - - - - - -
22/12:30am 24.0 CALM 0 0 1012.7 - 0.0 - - - - - - -
22/12:00am 24.1 NNW 1 2 1012.9 - 0.0 - - - - - - -
 
Date/Time
WST
Temp

°C
Wind Pressure Rain
since 9am
mm
Weather Cloud Vis
km
Sea
Height
m
Swell
Dir
 
Speed
knots
Gust
knots
hPa Trend Height
m
Period
s
Dir
21/11:30pm 24.6 NNW 3 3 1012.7 - 0.0 - - - - - - -
21/11:00pm 24.6 NNW 3 4 1012.9 - 0.0 - - - - - - -
21/10:30pm 24.8 NNW 3 4 1012.9 - 0.0 - - - - - - -
21/10:00pm 25.1 NNW 3 4 1012.9 - 0.0 - - - - - - -
21/09:30pm 25.2 NW 3 4 1012.8 - 0.0 - - - - - - -
21/09:00pm 25.8 NW 3 4 1012.6 - 0.0 - - - - - - -
21/08:30pm 26.1 NW 4 5 1012.5 - 0.0 - - - - - - -
21/08:00pm 26.4 NW 4 4 1012.2 - 0.0 - - - - - - -
21/07:30pm 27.1 WNW 3 4 1011.9 - 0.0 - - - - - - -
21/07:00pm 27.8 WNW 4 6 1011.6 - 0.0 - - - - - - -
21/06:30pm 28.4 WNW 5 8 1011.2 - 0.0 - - - - - - -
21/06:00pm 29.6 WNW 7 10 1010.9 - 0.0 - - - - - - -

Other Formats:

Comma delimited format used in spreadsheet applications
http://www.bom.gov.au/fwo/IDW60701/IDW60701.94306.axf

JavaScript Object Notation format (JSON) in row-major order
http://www.bom.gov.au/fwo/IDW60701/IDW60701.94306.json